PWSweather.com
Personal Weather Stations
Station Observations
IPORTUGA89
BarosaPT

BarosaPT

Lat: 39.754028, Lon: -8.843

Elevation: 98

Station Type: Davis Vp2

Latest ConditionsUpdated 6:56:25 PM GMT Monday, Aug 20, 2018
Currently Today's Max Today's Min Today's Average
Temperature 83.1°F28.4°C 98.2°F36.8°C 58.5°F14.7°C 78.9°F26.1°C
Dew Point 57.0°F13.9°C 63.7°F17.6°C 54.1°F12.3°C 56.8°F13.8°C
Winds 2.0 mph WNW3.2 kmh WNW 10.1 mph -16.3 kmh - - 3.4 mph 5.5 kmh
Wind Gusts 2.9 mph4.7 kmh 17.9 mph28.8 kmh - -
Humidity 41% 88% 26% 53%
Pressure 30.00 in1015.9 mb 30.03 in1016.9 mb 30.00 in1015.9 mb -
Hour Temp Dew Point Humidity Winds Wind Gusts Pressure Precip Precip Rate Daily Precip Total
06:56 PM 83.1°F28.4°C 57.0°F13.9°C 41% 2.0 mph WNW3.2 kmh WNW 2.9 mph4.7 kmh 30.00 in1015.9 mb 0.00 in0.0 mm 0.00 in0.0 mm 0.00 in0.0 mm
06:46 PM 84.4°F29.1°C 55.2°F12.9°C 37% 2.0 mph W3.2 kmh W 6.0 mph9.7 kmh 30.00 in1015.9 mb 0.00 in0.0 mm 0.00 in0.0 mm 0.00 in0.0 mm
06:36 PM 85.6°F29.8°C 55.6°F13.1°C 36% 2.9 mph NW4.7 kmh NW 6.9 mph11.1 kmh 30.00 in1015.9 mb 0.00 in0.0 mm 0.00 in0.0 mm 0.00 in0.0 mm
06:26 PM 86.4°F30.2°C 56.3°F13.5°C 36% 4.0 mph NW6.4 kmh NW 8.9 mph14.3 kmh 30.00 in1015.9 mb 0.00 in0.0 mm 0.00 in0.0 mm 0.00 in0.0 mm
06:16 PM 86.5°F30.3°C 54.9°F12.7°C 34% 4.9 mph NNW7.9 kmh NNW 10.1 mph16.3 kmh 30.00 in1015.9 mb 0.00 in0.0 mm 0.00 in0.0 mm 0.00 in0.0 mm
06:06 PM 86.7°F30.4°C 55.8°F13.2°C 35% 6.0 mph WNW9.7 kmh WNW 10.1 mph16.3 kmh 30.00 in1015.9 mb 0.00 in0.0 mm 0.00 in0.0 mm 0.00 in0.0 mm
05:56 PM 87.6°F30.9°C 55.8°F13.2°C 34% 4.9 mph NW7.9 kmh NW 10.1 mph16.3 kmh 30.00 in1015.9 mb 0.00 in0.0 mm 0.00 in0.0 mm 0.00 in0.0 mm
05:46 PM 88.2°F31.2°C 56.3°F13.5°C 34% 6.0 mph NW9.7 kmh NW 12.1 mph19.5 kmh 30.00 in1015.9 mb 0.00 in0.0 mm 0.00 in0.0 mm 0.00 in0.0 mm
05:36 PM 89.1°F31.7°C 57.0°F13.9°C 34% 4.0 mph NNW6.4 kmh NNW 8.9 mph14.3 kmh 30.00 in1015.9 mb 0.00 in0.0 mm 0.00 in0.0 mm 0.00 in0.0 mm
05:26 PM 89.1°F31.7°C 57.0°F13.9°C 34% 6.0 mph NW9.7 kmh NW 11.0 mph17.7 kmh 30.00 in1015.9 mb 0.00 in0.0 mm 0.00 in0.0 mm 0.00 in0.0 mm
05:16 PM 89.2°F31.8°C 57.2°F14.0°C 34% 4.0 mph NW6.4 kmh NW 8.9 mph14.3 kmh 30.00 in1015.9 mb 0.00 in0.0 mm 0.00 in0.0 mm 0.00 in0.0 mm
05:06 PM 89.4°F31.9°C 57.4°F14.1°C 34% 4.0 mph WSW6.4 kmh WSW 8.1 mph13.0 kmh 30.00 in1015.9 mb 0.00 in0.0 mm 0.00 in0.0 mm 0.00 in0.0 mm
04:56 PM 90.0°F32.2°C 57.7°F14.3°C 34% 4.9 mph WNW7.9 kmh WNW 8.9 mph14.3 kmh 30.00 in1015.9 mb 0.00 in0.0 mm 0.00 in0.0 mm 0.00 in0.0 mm
04:46 PM 90.3°F32.4°C 58.1°F14.5°C 34% 6.0 mph W9.7 kmh W 8.9 mph14.3 kmh 30.00 in1015.9 mb 0.00 in0.0 mm 0.00 in0.0 mm 0.00 in0.0 mm
04:36 PM 90.9°F32.7°C 58.6°F14.8°C 34% 4.9 mph WNW7.9 kmh WNW 10.1 mph16.3 kmh 30.00 in1015.9 mb 0.00 in0.0 mm 0.00 in0.0 mm 0.00 in0.0 mm
04:26 PM 91.8°F33.2°C 57.7°F14.3°C 32% 4.9 mph W7.9 kmh W 8.9 mph14.3 kmh 30.00 in1015.9 mb 0.00 in0.0 mm 0.00 in0.0 mm 0.00 in0.0 mm
04:16 PM 91.9°F33.3°C 58.6°F14.8°C 33% 4.9 mph W7.9 kmh W 10.1 mph16.3 kmh 30.01 in1016.3 mb 0.00 in0.0 mm 0.00 in0.0 mm 0.00 in0.0 mm
04:06 PM 92.1°F33.4°C 58.8°F14.9°C 33% 6.9 mph NW11.1 kmh NW 13.0 mph20.9 kmh 30.01 in1016.3 mb 0.00 in0.0 mm 0.00 in0.0 mm 0.00 in0.0 mm
03:56 PM 93.0°F33.9°C 57.9°F14.4°C 31% 4.9 mph WNW7.9 kmh WNW 12.1 mph19.5 kmh 30.01 in1016.3 mb 0.00 in0.0 mm 0.00 in0.0 mm 0.00 in0.0 mm
03:46 PM 93.6°F34.2°C 58.5°F14.7°C 31% 6.0 mph NW9.7 kmh NW 12.1 mph19.5 kmh 30.01 in1016.3 mb 0.00 in0.0 mm 0.00 in0.0 mm 0.00 in0.0 mm
03:36 PM 93.7°F34.3°C 57.6°F14.2°C 30% 6.9 mph NNW11.1 kmh NNW 12.1 mph19.5 kmh 30.01 in1016.3 mb 0.00 in0.0 mm 0.00 in0.0 mm 0.00 in0.0 mm
03:26 PM 93.7°F34.3°C 58.5°F14.7°C 31% 6.0 mph N9.7 kmh N 11.0 mph17.7 kmh 30.01 in1016.3 mb 0.00 in0.0 mm 0.00 in0.0 mm 0.00 in0.0 mm
03:16 PM 93.0°F33.9°C 57.9°F14.4°C 31% 10.1 mph NNW16.3 kmh NNW 17.9 mph28.8 kmh 30.01 in1016.3 mb 0.00 in0.0 mm 0.00 in0.0 mm 0.00 in0.0 mm
03:05 PM 94.5°F34.7°C 56.3°F13.5°C 28% 8.1 mph NW13.0 kmh NW 17.9 mph28.8 kmh 30.01 in1016.3 mb 0.00 in0.0 mm 0.00 in0.0 mm 0.00 in0.0 mm
02:55 PM 94.5°F34.7°C 57.4°F14.1°C 29% 8.9 mph WNW14.3 kmh WNW 16.1 mph25.9 kmh 30.01 in1016.3 mb 0.00 in0.0 mm 0.00 in0.0 mm 0.00 in0.0 mm
02:45 PM 95.2°F35.1°C 57.0°F13.9°C 28% 8.1 mph NW13.0 kmh NW 15.0 mph24.1 kmh 30.01 in1016.3 mb 0.00 in0.0 mm 0.00 in0.0 mm 0.00 in0.0 mm
02:35 PM 95.4°F35.2°C 57.0°F13.9°C 28% 8.9 mph NW14.3 kmh NW 15.0 mph24.1 kmh 30.01 in1016.3 mb 0.00 in0.0 mm 0.00 in0.0 mm 0.00 in0.0 mm
02:25 PM 95.4°F35.2°C 57.0°F13.9°C 28% 8.9 mph W14.3 kmh W 16.1 mph25.9 kmh 30.01 in1016.3 mb 0.00 in0.0 mm 0.00 in0.0 mm 0.00 in0.0 mm
02:15 PM 95.7°F35.4°C 56.3°F13.5°C 27% 10.1 mph NNW16.3 kmh NNW 16.1 mph25.9 kmh 30.01 in1016.3 mb 0.00 in0.0 mm 0.00 in0.0 mm 0.00 in0.0 mm
02:05 PM 96.4°F35.8°C 55.9°F13.3°C 26% 10.1 mph NW16.3 kmh NW 16.1 mph25.9 kmh 30.02 in1016.6 mb 0.00 in0.0 mm 0.00 in0.0 mm 0.00 in0.0 mm
01:55 PM 97.0°F36.1°C 56.5°F13.6°C 26% 8.1 mph NW13.0 kmh NW 16.1 mph25.9 kmh 30.02 in1016.6 mb 0.00 in0.0 mm 0.00 in0.0 mm 0.00 in0.0 mm
01:45 PM 97.3°F36.3°C 57.7°F14.3°C 27% 8.9 mph NW14.3 kmh NW 16.1 mph25.9 kmh 30.02 in1016.6 mb 0.00 in0.0 mm 0.00 in0.0 mm 0.00 in0.0 mm
01:35 PM 97.3°F36.3°C 57.7°F14.3°C 27% 10.1 mph NW16.3 kmh NW 17.0 mph27.4 kmh 30.01 in1016.3 mb 0.00 in0.0 mm 0.00 in0.0 mm 0.00 in0.0 mm
01:25 PM 96.8°F36.0°C 57.4°F14.1°C 27% 8.9 mph NW14.3 kmh NW 17.9 mph28.8 kmh 30.01 in1016.3 mb 0.00 in0.0 mm 0.00 in0.0 mm 0.00 in0.0 mm
01:15 PM 96.3°F35.7°C 57.9°F14.4°C 28% 6.9 mph NW11.1 kmh NW 16.1 mph25.9 kmh 30.02 in1016.6 mb 0.00 in0.0 mm 0.00 in0.0 mm 0.00 in0.0 mm
01:05 PM 96.6°F35.9°C 57.2°F14.0°C 27% 8.1 mph WSW13.0 kmh WSW 15.0 mph24.1 kmh 30.02 in1016.6 mb 0.00 in0.0 mm 0.00 in0.0 mm 0.00 in0.0 mm
12:55 PM 97.2°F36.2°C 57.6°F14.2°C 27% 8.1 mph WNW13.0 kmh WNW 15.0 mph24.1 kmh 30.02 in1016.6 mb 0.00 in0.0 mm 0.00 in0.0 mm 0.00 in0.0 mm
12:45 PM 97.3°F36.3°C 57.7°F14.3°C 27% 8.9 mph NW14.3 kmh NW 15.0 mph24.1 kmh 30.02 in1016.6 mb 0.00 in0.0 mm 0.00 in0.0 mm 0.00 in0.0 mm
12:35 PM 98.2°F36.8°C 58.5°F14.7°C 27% 4.0 mph NW6.4 kmh NW 15.0 mph24.1 kmh 30.02 in1016.6 mb 0.00 in0.0 mm 0.00 in0.0 mm 0.00 in0.0 mm
12:25 PM 98.1°F36.7°C 60.4°F15.8°C 29% 2.9 mph NE4.7 kmh NE 4.9 mph7.9 kmh 30.02 in1016.6 mb 0.00 in0.0 mm 0.00 in0.0 mm 0.00 in0.0 mm
12:15 PM 97.3°F36.3°C 58.8°F14.9°C 28% 4.9 mph E7.9 kmh E 8.1 mph13.0 kmh 30.02 in1016.6 mb 0.00 in0.0 mm 0.00 in0.0 mm 0.00 in0.0 mm
12:05 PM 96.8°F36.0°C 58.3°F14.6°C 28% 6.0 mph NE9.7 kmh NE 11.0 mph17.7 kmh 30.02 in1016.6 mb 0.00 in0.0 mm 0.00 in0.0 mm 0.00 in0.0 mm
11:55 AM 96.4°F35.8°C 59.0°F15.0°C 29% 4.9 mph ENE7.9 kmh ENE 10.1 mph16.3 kmh 30.03 in1016.9 mb 0.00 in0.0 mm 0.00 in0.0 mm 0.00 in0.0 mm
11:45 AM 96.6°F35.9°C 59.2°F15.1°C 29% 6.0 mph ESE9.7 kmh ESE 10.1 mph16.3 kmh 30.02 in1016.6 mb 0.00 in0.0 mm 0.00 in0.0 mm 0.00 in0.0 mm
11:35 AM 95.9°F35.5°C 57.6°F14.2°C 28% 6.0 mph ENE9.7 kmh ENE 11.0 mph17.7 kmh 30.03 in1016.9 mb 0.00 in0.0 mm 0.00 in0.0 mm 0.00 in0.0 mm
11:25 AM 95.5°F35.3°C 58.3°F14.6°C 29% 8.1 mph E13.0 kmh E 13.0 mph20.9 kmh 30.03 in1016.9 mb 0.00 in0.0 mm 0.00 in0.0 mm 0.00 in0.0 mm
11:15 AM 95.7°F35.4°C 57.4°F14.1°C 28% 6.9 mph ENE11.1 kmh ENE 14.1 mph22.7 kmh 30.03 in1016.9 mb 0.00 in0.0 mm 0.00 in0.0 mm 0.00 in0.0 mm
11:05 AM 95.4°F35.2°C 58.1°F14.5°C 29% 8.1 mph E13.0 kmh E 13.0 mph20.9 kmh 30.03 in1016.9 mb 0.00 in0.0 mm 0.00 in0.0 mm 0.00 in0.0 mm
10:55 AM 95.0°F35.0°C 57.7°F14.3°C 29% 8.9 mph E14.3 kmh E 15.0 mph24.1 kmh 30.03 in1016.9 mb 0.00 in0.0 mm 0.00 in0.0 mm 0.00 in0.0 mm
10:45 AM 94.5°F34.7°C 58.3°F14.6°C 30% 8.9 mph E14.3 kmh E 15.0 mph24.1 kmh 30.03 in1016.9 mb 0.00 in0.0 mm 0.00 in0.0 mm 0.00 in0.0 mm
10:35 AM 94.1°F34.5°C 58.8°F14.9°C 31% 8.9 mph E14.3 kmh E 13.0 mph20.9 kmh 30.03 in1016.9 mb 0.00 in0.0 mm 0.00 in0.0 mm 0.00 in0.0 mm
10:25 AM 93.6°F34.2°C 56.5°F13.6°C 29% 10.1 mph E16.3 kmh E 14.1 mph22.7 kmh 30.03 in1016.9 mb 0.00 in0.0 mm 0.00 in0.0 mm 0.00 in0.0 mm
10:15 AM 93.9°F34.4°C 56.8°F13.8°C 29% 6.0 mph ENE9.7 kmh ENE 13.0 mph20.9 kmh 30.03 in1016.9 mb 0.00 in0.0 mm 0.00 in0.0 mm 0.00 in0.0 mm
10:05 AM 92.7°F33.7°C 56.7°F13.7°C 30% 8.1 mph E13.0 kmh E 13.0 mph20.9 kmh 30.03 in1016.9 mb 0.00 in0.0 mm 0.00 in0.0 mm 0.00 in0.0 mm
09:55 AM 92.3°F33.5°C 55.4°F13.0°C 29% 6.0 mph SE9.7 kmh SE 12.1 mph19.5 kmh 30.03 in1016.9 mb 0.00 in0.0 mm 0.00 in0.0 mm 0.00 in0.0 mm
09:45 AM 91.6°F33.1°C 55.8°F13.2°C 30% 4.9 mph NE7.9 kmh NE 8.1 mph13.0 kmh 30.03 in1016.9 mb 0.00 in0.0 mm 0.00 in0.0 mm 0.00 in0.0 mm
09:35 AM 90.0°F32.2°C 56.1°F13.4°C 32% 4.0 mph ENE6.4 kmh ENE 8.1 mph13.0 kmh 30.03 in1016.9 mb 0.00 in0.0 mm 0.00 in0.0 mm 0.00 in0.0 mm
09:25 AM 88.5°F31.4°C 56.5°F13.6°C 34% 4.0 mph NE6.4 kmh NE 8.1 mph13.0 kmh 30.03 in1016.9 mb 0.00 in0.0 mm 0.00 in0.0 mm 0.00 in0.0 mm
09:15 AM 86.7°F30.4°C 58.1°F14.5°C 38% 2.9 mph NE4.7 kmh NE 4.9 mph7.9 kmh 30.03 in1016.9 mb 0.00 in0.0 mm 0.00 in0.0 mm 0.00 in0.0 mm
09:05 AM 85.8°F29.9°C 60.1°F15.6°C 42% 2.0 mph NE3.2 kmh NE 2.9 mph4.7 kmh 30.03 in1016.9 mb 0.00 in0.0 mm 0.00 in0.0 mm 0.00 in0.0 mm
08:55 AM 83.7°F28.7°C 59.4°F15.2°C 44% 0.9 mph NE1.4 kmh NE 2.9 mph4.7 kmh 30.03 in1016.9 mb 0.00 in0.0 mm 0.00 in0.0 mm 0.00 in0.0 mm
08:45 AM 81.7°F27.6°C 60.6°F15.9°C 49% Calm Calm 0.9 mph1.4 kmh 30.03 in1016.9 mb 0.00 in0.0 mm 0.00 in0.0 mm 0.00 in0.0 mm
08:35 AM 79.9°F26.6°C 62.2°F16.8°C 55% Calm Calm 2.0 mph3.2 kmh 30.03 in1016.9 mb 0.00 in0.0 mm 0.00 in0.0 mm 0.00 in0.0 mm
08:25 AM 77.2°F25.1°C 63.7°F17.6°C 63% 0.9 mph NE1.4 kmh NE 2.9 mph4.7 kmh 30.03 in1016.9 mb 0.00 in0.0 mm 0.00 in0.0 mm 0.00 in0.0 mm
08:15 AM 75.9°F24.4°C 61.5°F16.4°C 61% 0.9 mph ENE1.4 kmh ENE 2.9 mph4.7 kmh 30.03 in1016.9 mb 0.00 in0.0 mm 0.00 in0.0 mm 0.00 in0.0 mm
08:05 AM 73.9°F23.3°C 62.2°F16.8°C 67% 0.9 mph SSE1.4 kmh SSE 2.0 mph3.2 kmh 30.03 in1016.9 mb 0.00 in0.0 mm 0.00 in0.0 mm 0.00 in0.0 mm
07:55 AM 72.3°F22.4°C 61.2°F16.2°C 68% 0.9 mph N1.4 kmh N 2.9 mph4.7 kmh 30.03 in1016.9 mb 0.00 in0.0 mm 0.00 in0.0 mm 0.00 in0.0 mm
07:45 AM 71.2°F21.8°C 61.0°F16.1°C 70% 0.9 mph N1.4 kmh N 2.0 mph3.2 kmh 30.03 in1016.9 mb 0.00 in0.0 mm 0.00 in0.0 mm 0.00 in0.0 mm
07:34 AM 69.4°F20.8°C 60.4°F15.8°C 73% Calm Calm 2.0 mph3.2 kmh 30.03 in1016.9 mb 0.00 in0.0 mm 0.00 in0.0 mm 0.00 in0.0 mm
07:24 AM 67.3°F19.6°C 59.5°F15.3°C 76% Calm Calm 0.9 mph1.4 kmh 30.03 in1016.9 mb 0.00 in0.0 mm 0.00 in0.0 mm 0.00 in0.0 mm
07:14 AM 65.7°F18.7°C 59.4°F15.2°C 80% 0.9 mph N1.4 kmh N 2.0 mph3.2 kmh 30.03 in1016.9 mb 0.00 in0.0 mm 0.00 in0.0 mm 0.00 in0.0 mm
07:04 AM 64.8°F18.2°C 59.2°F15.1°C 82% Calm Calm 0.9 mph1.4 kmh 30.02 in1016.6 mb 0.00 in0.0 mm 0.00 in0.0 mm 0.00 in0.0 mm
06:54 AM 63.7°F17.6°C 58.8°F14.9°C 84% Calm Calm 0.9 mph1.4 kmh 30.02 in1016.6 mb 0.00 in0.0 mm 0.00 in0.0 mm 0.00 in0.0 mm
06:44 AM 62.2°F16.8°C 58.3°F14.6°C 87% Calm Calm -- 30.02 in1016.6 mb 0.00 in0.0 mm 0.00 in0.0 mm 0.00 in0.0 mm
06:34 AM 60.4°F15.8°C 56.8°F13.8°C 88% Calm Calm 0.9 mph1.4 kmh 30.02 in1016.6 mb 0.00 in0.0 mm 0.00 in0.0 mm 0.00 in0.0 mm
06:24 AM 59.2°F15.1°C 55.6°F13.1°C 88% Calm Calm -- 30.02 in1016.6 mb 0.00 in0.0 mm 0.00 in0.0 mm 0.00 in0.0 mm
06:14 AM 58.6°F14.8°C 54.9°F12.7°C 87% Calm Calm 0.9 mph1.4 kmh 30.01 in1016.3 mb 0.00 in0.0 mm 0.00 in0.0 mm 0.00 in0.0 mm
06:04 AM 58.5°F14.7°C 54.7°F12.6°C 87% Calm Calm -- 30.01 in1016.3 mb 0.00 in0.0 mm 0.00 in0.0 mm 0.00 in0.0 mm
05:54 AM 58.5°F14.7°C 54.3°F12.4°C 86% Calm Calm -- 30.01 in1016.3 mb 0.00 in0.0 mm 0.00 in0.0 mm 0.00 in0.0 mm
05:44 AM 58.6°F14.8°C 54.5°F12.5°C 86% Calm Calm -- 30.01 in1016.3 mb 0.00 in0.0 mm 0.00 in0.0 mm 0.00 in0.0 mm
05:34 AM 58.6°F14.8°C 54.5°F12.5°C 86% Calm Calm -- 30.01 in1016.3 mb 0.00 in0.0 mm 0.00 in0.0 mm 0.00 in0.0 mm
05:24 AM 58.8°F14.9°C 54.7°F12.6°C 86% Calm Calm -- 30.01 in1016.3 mb 0.00 in0.0 mm 0.00 in0.0 mm 0.00 in0.0 mm
05:14 AM 58.8°F14.9°C 55.0°F12.8°C 87% Calm Calm 0.9 mph1.4 kmh 30.01 in1016.3 mb 0.00 in0.0 mm 0.00 in0.0 mm 0.00 in0.0 mm
05:03 AM 58.6°F14.8°C 54.9°F12.7°C 87% Calm Calm 0.9 mph1.4 kmh 30.01 in1016.3 mb 0.00 in0.0 mm 0.00 in0.0 mm 0.00 in0.0 mm
04:53 AM 58.5°F14.7°C 54.3°F12.4°C 86% Calm Calm 0.9 mph1.4 kmh 30.00 in1015.9 mb 0.00 in0.0 mm 0.00 in0.0 mm 0.00 in0.0 mm
04:43 AM 58.5°F14.7°C 54.3°F12.4°C 86% Calm Calm -- 30.00 in1015.9 mb 0.00 in0.0 mm 0.00 in0.0 mm 0.00 in0.0 mm
04:33 AM 58.6°F14.8°C 54.5°F12.5°C 86% Calm Calm 0.9 mph1.4 kmh 30.01 in1016.3 mb 0.00 in0.0 mm 0.00 in0.0 mm 0.00 in0.0 mm
04:23 AM 58.8°F14.9°C 54.7°F12.6°C 86% Calm Calm 0.9 mph1.4 kmh 30.01 in1016.3 mb 0.00 in0.0 mm 0.00 in0.0 mm 0.00 in0.0 mm
04:13 AM 58.8°F14.9°C 54.7°F12.6°C 86% Calm Calm -- 30.01 in1016.3 mb 0.00 in0.0 mm 0.00 in0.0 mm 0.00 in0.0 mm
04:03 AM 58.8°F14.9°C 54.3°F12.4°C 85% Calm Calm -- 30.00 in1015.9 mb 0.00 in0.0 mm 0.00 in0.0 mm 0.00 in0.0 mm
03:52 AM 59.0°F15.0°C 54.5°F12.5°C 85% Calm Calm -- 30.00 in1015.9 mb 0.00 in0.0 mm 0.00 in0.0 mm 0.00 in0.0 mm
03:42 AM 58.8°F14.9°C 54.3°F12.4°C 85% Calm Calm 0.9 mph1.4 kmh 30.00 in1015.9 mb 0.00 in0.0 mm 0.00 in0.0 mm 0.00 in0.0 mm
03:32 AM 59.0°F15.0°C 54.1°F12.3°C 84% Calm Calm -- 30.00 in1015.9 mb 0.00 in0.0 mm 0.00 in0.0 mm 0.00 in0.0 mm
03:22 AM 59.2°F15.1°C 54.3°F12.4°C 84% Calm Calm -- 30.01 in1016.3 mb 0.00 in0.0 mm 0.00 in0.0 mm 0.00 in0.0 mm
03:12 AM 59.4°F15.2°C 54.5°F12.5°C 84% Calm Calm -- 30.01 in1016.3 mb 0.00 in0.0 mm 0.00 in0.0 mm 0.00 in0.0 mm
03:02 AM 59.4°F15.2°C 54.1°F12.3°C 83% Calm Calm 0.9 mph1.4 kmh 30.01 in1016.3 mb 0.00 in0.0 mm 0.00 in0.0 mm 0.00 in0.0 mm
02:52 AM 59.7°F15.4°C 54.5°F12.5°C 83% Calm Calm -- 30.01 in1016.3 mb 0.00 in0.0 mm 0.00 in0.0 mm 0.00 in0.0 mm
02:41 AM 59.7°F15.4°C 54.5°F12.5°C 83% Calm Calm 0.9 mph1.4 kmh 30.01 in1016.3 mb 0.00 in0.0 mm 0.00 in0.0 mm 0.00 in0.0 mm
02:31 AM 59.7°F15.4°C 54.5°F12.5°C 83% Calm Calm 0.9 mph1.4 kmh 30.01 in1016.3 mb 0.00 in0.0 mm 0.00 in0.0 mm 0.00 in0.0 mm
02:21 AM 59.7°F15.4°C 54.1°F12.3°C 82% Calm Calm 0.9 mph1.4 kmh 30.01 in1016.3 mb 0.00 in0.0 mm 0.00 in0.0 mm 0.00 in0.0 mm
02:11 AM 60.3°F15.7°C 54.7°F12.6°C 82% Calm Calm -- 30.02 in1016.6 mb 0.00 in0.0 mm 0.00 in0.0 mm 0.00 in0.0 mm
02:01 AM 60.4°F15.8°C 54.9°F12.7°C 82% 0.9 mph WSW1.4 kmh WSW 2.0 mph3.2 kmh 30.02 in1016.6 mb 0.00 in0.0 mm 0.00 in0.0 mm 0.00 in0.0 mm
01:50 AM 60.6°F15.9°C 55.0°F12.8°C 82% Calm Calm -- 30.02 in1016.6 mb 0.00 in0.0 mm 0.00 in0.0 mm 0.00 in0.0 mm
01:40 AM 61.0°F16.1°C 54.5°F12.5°C 79% Calm Calm -- 30.02 in1016.6 mb 0.00 in0.0 mm 0.00 in0.0 mm 0.00 in0.0 mm
01:30 AM 61.2°F16.2°C 54.7°F12.6°C 79% Calm Calm -- 30.02 in1016.6 mb 0.00 in0.0 mm 0.00 in0.0 mm 0.00 in0.0 mm
01:20 AM 61.3°F16.3°C 54.5°F12.5°C 78% Calm Calm -- 30.02 in1016.6 mb 0.00 in0.0 mm 0.00 in0.0 mm 0.00 in0.0 mm
01:10 AM 61.7°F16.5°C 54.5°F12.5°C 77% Calm Calm -- 30.03 in1016.9 mb 0.00 in0.0 mm 0.00 in0.0 mm 0.00 in0.0 mm
01:00 AM 61.9°F16.6°C 54.7°F12.6°C 77% Calm Calm -- 30.03 in1016.9 mb 0.00 in0.0 mm 0.00 in0.0 mm 0.00 in0.0 mm
12:50 AM 62.1°F16.7°C 54.7°F12.6°C 77% Calm Calm 0.9 mph1.4 kmh 30.03 in1016.9 mb 0.00 in0.0 mm 0.00 in0.0 mm 0.00 in0.0 mm
12:40 AM 62.1°F16.7°C 54.3°F12.4°C 76% Calm Calm -- 30.03 in1016.9 mb 0.00 in0.0 mm 0.00 in0.0 mm 0.00 in0.0 mm
12:29 AM 62.2°F16.8°C 54.1°F12.3°C 75% Calm Calm 0.9 mph1.4 kmh 30.03 in1016.9 mb 0.00 in0.0 mm 0.00 in0.0 mm 0.00 in0.0 mm
12:19 AM 62.8°F17.1°C 54.3°F12.4°C 74% Calm Calm 0.9 mph1.4 kmh 30.03 in1016.9 mb 0.00 in0.0 mm 0.00 in0.0 mm 0.00 in0.0 mm
12:09 AM 63.1°F17.3°C 54.7°F12.6°C 74% Calm Calm 2.0 mph3.2 kmh 30.03 in1016.9 mb 0.00 in0.0 mm 0.00 in0.0 mm 0.00 in0.0 mm